sensor_id;sensor_type;location;lat;lon;timestamp;P1;durP1;ratioP1;P2;durP2;ratioP2
40623;SDS011;26325;48.594;11.650;2024-03-23T00:54:54;4.00;;;3.70;;
40623;SDS011;26325;48.594;11.650;2024-03-23T00:57:20;4.10;;;3.70;;
40623;SDS011;26325;48.594;11.650;2024-03-23T00:59:48;4.30;;;3.88;;
40623;SDS011;26325;48.594;11.650;2024-03-23T01:02:16;5.10;;;3.50;;
40623;SDS011;26325;48.594;11.650;2024-03-23T01:04:41;4.47;;;3.88;;
40623;SDS011;26325;48.594;11.650;2024-03-23T01:07:07;3.80;;;3.45;;
40623;SDS011;26325;48.594;11.650;2024-03-23T01:09:32;5.40;;;3.78;;
40623;SDS011;26325;48.594;11.650;2024-03-23T01:11:58;4.05;;;3.65;;
40623;SDS011;26325;48.594;11.650;2024-03-23T01:14:24;4.40;;;4.00;;
40623;SDS011;26325;48.594;11.650;2024-03-23T01:16:49;4.28;;;3.88;;
40623;SDS011;26325;48.594;11.650;2024-03-23T01:19:15;4.43;;;4.03;;
40623;SDS011;26325;48.594;11.650;2024-03-23T01:24:06;4.38;;;3.97;;
40623;SDS011;26325;48.594;11.650;2024-03-23T01:26:35;3.70;;;3.40;;
40623;SDS011;26325;48.594;11.650;2024-03-23T01:29:02;3.95;;;3.60;;
40623;SDS011;26325;48.594;11.650;2024-03-23T01:31:27;3.70;;;3.40;;
40623;SDS011;26325;48.594;11.650;2024-03-23T01:33:53;4.05;;;3.70;;
40623;SDS011;26325;48.594;11.650;2024-03-23T01:36:21;4.10;;;3.70;;
40623;SDS011;26325;48.594;11.650;2024-03-23T01:38:46;4.50;;;4.00;;
40623;SDS011;26325;48.594;11.650;2024-03-23T01:41:12;5.05;;;3.47;;
40623;SDS011;26325;48.594;11.650;2024-03-23T01:43:37;3.97;;;3.67;;
40623;SDS011;26325;48.594;11.650;2024-03-23T01:46:03;3.78;;;3.47;;
40623;SDS011;26325;48.594;11.650;2024-03-23T01:48:29;5.25;;;4.00;;
40623;SDS011;26325;48.594;11.650;2024-03-23T01:50:54;4.20;;;3.80;;
40623;SDS011;26325;48.594;11.650;2024-03-23T01:53:22;4.07;;;3.70;;
40623;SDS011;26325;48.594;11.650;2024-03-23T01:55:49;4.47;;;3.60;;
40623;SDS011;26325;48.594;11.650;2024-03-23T01:58:16;4.30;;;3.90;;
40623;SDS011;26325;48.594;11.650;2024-03-23T02:00:42;3.80;;;3.50;;
40623;SDS011;26325;48.594;11.650;2024-03-23T02:03:24;4.75;;;3.60;;
40623;SDS011;26325;48.594;11.650;2024-03-23T02:05:53;4.50;;;3.83;;
40623;SDS011;26325;48.594;11.650;2024-03-23T02:08:26;3.80;;;3.50;;
40623;SDS011;26325;48.594;11.650;2024-03-23T02:10:51;3.97;;;3.55;;
40623;SDS011;26325;48.594;11.650;2024-03-23T02:13:18;4.20;;;3.80;;
40623;SDS011;26325;48.594;11.650;2024-03-23T02:15:44;4.35;;;3.50;;
40623;SDS011;26325;48.594;11.650;2024-03-23T02:18:10;3.80;;;3.50;;
40623;SDS011;26325;48.594;11.650;2024-03-23T02:20:36;3.92;;;3.30;;
40623;SDS011;26325;48.594;11.650;2024-03-23T02:23:03;3.83;;;3.50;;
40623;SDS011;26325;48.594;11.650;2024-03-23T02:25:32;3.70;;;3.40;;
40623;SDS011;26325;48.594;11.650;2024-03-23T02:27:58;3.63;;;3.33;;
40623;SDS011;26325;48.594;11.650;2024-03-23T02:30:27;3.70;;;3.40;;
40623;SDS011;26325;48.594;11.650;2024-03-23T02:32:52;4.47;;;3.90;;
40623;SDS011;26325;48.594;11.650;2024-03-23T02:35:18;4.03;;;3.63;;
40623;SDS011;26325;48.594;11.650;2024-03-23T02:37:49;2.97;;;2.70;;
40623;SDS011;26325;48.594;11.650;2024-03-23T02:40:15;3.30;;;3.00;;
40623;SDS011;26325;48.594;11.650;2024-03-23T02:42:41;3.67;;;3.35;;
40623;SDS011;26325;48.594;11.650;2024-03-23T02:45:07;3.55;;;3.25;;
40623;SDS011;26325;48.594;11.650;2024-03-23T02:47:33;3.85;;;2.92;;
40623;SDS011;26325;48.594;11.650;2024-03-23T02:50:01;3.40;;;3.15;;
40623;SDS011;26325;48.594;11.650;2024-03-23T02:52:26;3.28;;;2.97;;
40623;SDS011;26325;48.594;11.650;2024-03-23T02:54:52;3.50;;;3.20;;
40623;SDS011;26325;48.594;11.650;2024-03-23T02:57:18;3.10;;;2.78;;
40623;SDS011;26325;48.594;11.650;2024-03-23T02:59:43;3.88;;;3.08;;
40623;SDS011;26325;48.594;11.650;2024-03-23T03:02:13;3.33;;;3.03;;
40623;SDS011;26325;48.594;11.650;2024-03-23T03:04:39;3.15;;;2.85;;
40623;SDS011;26325;48.594;11.650;2024-03-23T03:07:04;2.67;;;2.47;;
40623;SDS011;26325;48.594;11.650;2024-03-23T03:09:32;3.47;;;2.70;;
40623;SDS011;26325;48.594;11.650;2024-03-23T03:12:01;3.03;;;2.60;;
40623;SDS011;26325;48.594;11.650;2024-03-23T03:14:27;3.90;;;2.63;;
40623;SDS011;26325;48.594;11.650;2024-03-23T03:16:53;2.83;;;2.63;;
40623;SDS011;26325;48.594;11.650;2024-03-23T03:19:19;2.85;;;2.65;;
40623;SDS011;26325;48.594;11.650;2024-03-23T03:21:45;2.97;;;2.60;;
40623;SDS011;26325;48.594;11.650;2024-03-23T03:26:38;3.10;;;2.80;;
40623;SDS011;26325;48.594;11.650;2024-03-23T03:29:04;2.60;;;2.40;;
40623;SDS011;26325;48.594;11.650;2024-03-23T03:33:55;2.92;;;2.72;;
40623;SDS011;26325;48.594;11.650;2024-03-23T03:36:20;3.10;;;2.67;;
40623;SDS011;26325;48.594;11.650;2024-03-23T03:38:46;3.63;;;2.47;;
40623;SDS011;26325;48.594;11.650;2024-03-23T03:41:15;3.08;;;2.78;;
40623;SDS011;26325;48.594;11.650;2024-03-23T03:43:41;2.72;;;2.40;;
40623;SDS011;26325;48.594;11.650;2024-03-23T03:46:06;2.58;;;2.38;;
40623;SDS011;26325;48.594;11.650;2024-03-23T03:48:37;2.80;;;2.60;;
40623;SDS011;26325;48.594;11.650;2024-03-23T03:51:03;2.60;;;2.40;;
40623;SDS011;26325;48.594;11.650;2024-03-23T03:53:29;3.13;;;2.42;;
40623;SDS011;26325;48.594;11.650;2024-03-23T03:55:55;3.40;;;2.88;;
40623;SDS011;26325;48.594;11.650;2024-03-23T03:58:23;2.80;;;2.60;;
40623;SDS011;26325;48.594;11.650;2024-03-23T04:00:49;2.92;;;2.42;;
40623;SDS011;26325;48.594;11.650;2024-03-23T04:03:17;3.08;;;2.78;;
40623;SDS011;26325;48.594;11.650;2024-03-23T04:05:42;4.25;;;2.50;;
40623;SDS011;26325;48.594;11.650;2024-03-23T04:08:13;3.10;;;2.33;;
40623;SDS011;26325;48.594;11.650;2024-03-23T04:10:39;2.90;;;2.60;;
40623;SDS011;26325;48.594;11.650;2024-03-23T04:13:04;2.85;;;2.65;;
40623;SDS011;26325;48.594;11.650;2024-03-23T04:15:30;4.57;;;2.60;;
40623;SDS011;26325;48.594;11.650;2024-03-23T04:17:55;3.65;;;2.63;;
40623;SDS011;26325;48.594;11.650;2024-03-23T04:20:21;3.17;;;2.38;;
40623;SDS011;26325;48.594;11.650;2024-03-23T04:22:46;4.00;;;2.50;;
40623;SDS011;26325;48.594;11.650;2024-03-23T04:25:13;3.67;;;2.60;;
40623;SDS011;26325;48.594;11.650;2024-03-23T04:27:41;3.03;;;2.60;;
40623;SDS011;26325;48.594;11.650;2024-03-23T04:30:07;3.35;;;2.83;;
40623;SDS011;26325;48.594;11.650;2024-03-23T04:32:39;2.75;;;2.50;;
40623;SDS011;26325;48.594;11.650;2024-03-23T04:35:05;2.97;;;2.63;;
40623;SDS011;26325;48.594;11.650;2024-03-23T04:37:34;4.32;;;2.50;;
40623;SDS011;26325;48.594;11.650;2024-03-23T04:40:00;3.45;;;2.50;;
40623;SDS011;26325;48.594;11.650;2024-03-23T04:42:30;2.42;;;2.30;;
40623;SDS011;26325;48.594;11.650;2024-03-23T04:44:56;2.53;;;2.33;;
40623;SDS011;26325;48.594;11.650;2024-03-23T04:47:22;2.63;;;2.42;;
40623;SDS011;26325;48.594;11.650;2024-03-23T04:52:13;2.60;;;2.40;;
40623;SDS011;26325;48.594;11.650;2024-03-23T04:54:41;3.50;;;2.63;;
40623;SDS011;26325;48.594;11.650;2024-03-23T04:57:07;2.42;;;2.22;;
40623;SDS011;26325;48.594;11.650;2024-03-23T04:59:33;2.67;;;2.47;;
40623;SDS011;26325;48.594;11.650;2024-03-23T05:04:26;2.50;;;2.30;;
40623;SDS011;26325;48.594;11.650;2024-03-23T05:06:52;3.75;;;2.70;;
40623;SDS011;26325;48.594;11.650;2024-03-23T05:09:20;2.60;;;2.40;;
40623;SDS011;26325;48.594;11.650;2024-03-23T05:11:46;2.85;;;2.17;;
40623;SDS011;26325;48.594;11.650;2024-03-23T05:14:14;2.80;;;2.60;;
40623;SDS011;26325;48.594;11.650;2024-03-23T05:16:46;3.17;;;2.45;;
40623;SDS011;26325;48.594;11.650;2024-03-23T05:19:11;3.05;;;2.85;;
40623;SDS011;26325;48.594;11.650;2024-03-23T05:21:37;3.30;;;2.70;;
40623;SDS011;26325;48.594;11.650;2024-03-23T05:26:30;2.95;;;2.40;;
40623;SDS011;26325;48.594;11.650;2024-03-23T05:28:58;2.83;;;2.50;;
40623;SDS011;26325;48.594;11.650;2024-03-23T05:31:27;3.60;;;2.42;;
40623;SDS011;26325;48.594;11.650;2024-03-23T05:33:53;4.57;;;2.40;;
40623;SDS011;26325;48.594;11.650;2024-03-23T05:36:22;3.25;;;2.78;;
40623;SDS011;26325;48.594;11.650;2024-03-23T05:38:50;4.38;;;2.50;;
40623;SDS011;26325;48.594;11.650;2024-03-23T05:41:16;3.35;;;2.50;;
40623;SDS011;26325;48.594;11.650;2024-03-23T05:43:42;2.85;;;2.40;;
40623;SDS011;26325;48.594;11.650;2024-03-23T05:46:07;2.65;;;2.45;;
40623;SDS011;26325;48.594;11.650;2024-03-23T05:48:36;2.53;;;2.33;;
40623;SDS011;26325;48.594;11.650;2024-03-23T05:51:01;5.07;;;2.55;;
40623;SDS011;26325;48.594;11.650;2024-03-23T05:53:28;2.70;;;2.50;;
40623;SDS011;26325;48.594;11.650;2024-03-23T05:56:03;2.80;;;2.20;;
40623;SDS011;26325;48.594;11.650;2024-03-23T05:58:29;3.30;;;2.20;;
40623;SDS011;26325;48.594;11.650;2024-03-23T06:00:59;2.42;;;2.22;;
40623;SDS011;26325;48.594;11.650;2024-03-23T06:03:28;2.58;;;2.25;;
40623;SDS011;26325;48.594;11.650;2024-03-23T06:05:54;2.53;;;2.33;;
40623;SDS011;26325;48.594;11.650;2024-03-23T06:08:20;3.97;;;2.70;;
40623;SDS011;26325;48.594;11.650;2024-03-23T06:10:47;2.63;;;2.53;;
40623;SDS011;26325;48.594;11.650;2024-03-23T06:13:13;2.28;;;2.13;;
40623;SDS011;26325;48.594;11.650;2024-03-23T06:15:39;2.30;;;2.10;;
40623;SDS011;26325;48.594;11.650;2024-03-23T06:18:05;2.45;;;2.10;;
40623;SDS011;26325;48.594;11.650;2024-03-23T06:20:34;2.72;;;2.08;;
40623;SDS011;26325;48.594;11.650;2024-03-23T06:23:02;4.68;;;2.20;;
40623;SDS011;26325;48.594;11.650;2024-03-23T06:25:28;2.25;;;2.03;;
40623;SDS011;26325;48.594;11.650;2024-03-23T06:27:54;2.88;;;2.60;;
40623;SDS011;26325;48.594;11.650;2024-03-23T06:30:20;1.92;;;1.83;;
40623;SDS011;26325;48.594;11.650;2024-03-23T06:32:46;2.53;;;2.03;;
40623;SDS011;26325;48.594;11.650;2024-03-23T06:35:13;1.90;;;1.80;;
40623;SDS011;26325;48.594;11.650;2024-03-23T06:37:39;2.28;;;2.08;;
40623;SDS011;26325;48.594;11.650;2024-03-23T06:40:07;2.20;;;2.00;;
40623;SDS011;26325;48.594;11.650;2024-03-23T06:42:36;2.60;;;2.20;;
40623;SDS011;26325;48.594;11.650;2024-03-23T06:45:02;2.38;;;2.17;;
40623;SDS011;26325;48.594;11.650;2024-03-23T06:47:30;2.88;;;2.05;;
40623;SDS011;26325;48.594;11.650;2024-03-23T06:49:56;2.97;;;1.90;;
40623;SDS011;26325;48.594;11.650;2024-03-23T06:52:21;2.03;;;1.92;;
40623;SDS011;26325;48.594;11.650;2024-03-23T06:54:47;2.10;;;1.90;;
40623;SDS011;26325;48.594;11.650;2024-03-23T06:57:15;1.77;;;1.67;;
40623;SDS011;26325;48.594;11.650;2024-03-23T06:59:43;2.13;;;1.95;;
40623;SDS011;26325;48.594;11.650;2024-03-23T07:02:10;1.95;;;1.85;;
40623;SDS011;26325;48.594;11.650;2024-03-23T07:04:36;2.10;;;1.80;;
40623;SDS011;26325;48.594;11.650;2024-03-23T07:07:02;3.88;;;1.98;;
40623;SDS011;26325;48.594;11.650;2024-03-23T07:09:28;2.38;;;1.88;;
40623;SDS011;26325;48.594;11.650;2024-03-23T07:11:55;3.20;;;2.08;;
40623;SDS011;26325;48.594;11.650;2024-03-23T07:14:22;2.08;;;1.77;;
40623;SDS011;26325;48.594;11.650;2024-03-23T07:16:50;2.65;;;2.05;;
40623;SDS011;26325;48.594;11.650;2024-03-23T07:19:17;2.38;;;1.90;;
40623;SDS011;26325;48.594;11.650;2024-03-23T07:21:49;2.20;;;2.00;;
40623;SDS011;26325;48.594;11.650;2024-03-23T07:24:16;2.40;;;1.80;;
40623;SDS011;26325;48.594;11.650;2024-03-23T07:26:44;3.00;;;1.90;;
40623;SDS011;26325;48.594;11.650;2024-03-23T07:29:13;5.22;;;2.30;;
40623;SDS011;26325;48.594;11.650;2024-03-23T07:31:38;2.30;;;2.05;;
40623;SDS011;26325;48.594;11.650;2024-03-23T07:34:04;2.90;;;2.30;;
40623;SDS011;26325;48.594;11.650;2024-03-23T07:36:31;2.70;;;2.28;;
40623;SDS011;26325;48.594;11.650;2024-03-23T07:38:56;2.55;;;2.20;;
40623;SDS011;26325;48.594;11.650;2024-03-23T07:41:22;3.28;;;2.50;;
40623;SDS011;26325;48.594;11.650;2024-03-23T07:43:50;4.93;;;4.50;;
40623;SDS011;26325;48.594;11.650;2024-03-23T07:46:16;6.72;;;5.13;;
40623;SDS011;26325;48.594;11.650;2024-03-23T07:48:45;5.32;;;4.82;;
40623;SDS011;26325;48.594;11.650;2024-03-23T07:51:22;5.35;;;4.85;;
40623;SDS011;26325;48.594;11.650;2024-03-23T07:53:48;5.55;;;5.03;;
40623;SDS011;26325;48.594;11.650;2024-03-23T07:56:17;5.82;;;5.32;;
40623;SDS011;26325;48.594;11.650;2024-03-23T07:58:47;5.82;;;5.32;;
40623;SDS011;26325;48.594;11.650;2024-03-23T08:01:14;5.97;;;5.22;;
40623;SDS011;26325;48.594;11.650;2024-03-23T08:03:42;5.20;;;4.72;;
40623;SDS011;26325;48.594;11.650;2024-03-23T08:06:17;4.72;;;4.32;;
40623;SDS011;26325;48.594;11.650;2024-03-23T08:08:48;5.28;;;4.78;;
40623;SDS011;26325;48.594;11.650;2024-03-23T08:11:16;5.30;;;4.85;;
40623;SDS011;26325;48.594;11.650;2024-03-23T08:13:42;4.82;;;4.25;;
40623;SDS011;26325;48.594;11.650;2024-03-23T08:16:12;5.32;;;4.53;;
40623;SDS011;26325;48.594;11.650;2024-03-23T08:18:41;5.60;;;4.72;;
40623;SDS011;26325;48.594;11.650;2024-03-23T08:21:07;5.38;;;4.13;;
40623;SDS011;26325;48.594;11.650;2024-03-23T08:23:33;4.32;;;4.03;;
40623;SDS011;26325;48.594;11.650;2024-03-23T08:26:04;4.28;;;3.88;;
40623;SDS011;26325;48.594;11.650;2024-03-23T08:28:31;4.60;;;4.20;;
40623;SDS011;26325;48.594;11.650;2024-03-23T08:30:57;5.07;;;4.05;;
40623;SDS011;26325;48.594;11.650;2024-03-23T08:33:25;4.90;;;3.53;;
40623;SDS011;26325;48.594;11.650;2024-03-23T08:36:04;4.28;;;3.20;;
40623;SDS011;26325;48.594;11.650;2024-03-23T08:38:31;3.75;;;3.45;;
40623;SDS011;26325;48.594;11.650;2024-03-23T08:41:23;3.97;;;3.42;;
40623;SDS011;26325;48.594;11.650;2024-03-23T08:43:49;3.47;;;3.13;;
40623;SDS011;26325;48.594;11.650;2024-03-23T08:46:15;3.00;;;2.75;;
40623;SDS011;26325;48.594;11.650;2024-03-23T08:48:43;3.22;;;2.92;;
40623;SDS011;26325;48.594;11.650;2024-03-23T08:51:11;2.90;;;2.70;;
40623;SDS011;26325;48.594;11.650;2024-03-23T08:53:39;2.58;;;2.38;;
40623;SDS011;26325;48.594;11.650;2024-03-23T08:56:06;3.20;;;2.80;;
40623;SDS011;26325;48.594;11.650;2024-03-23T08:58:33;2.58;;;2.38;;
40623;SDS011;26325;48.594;11.650;2024-03-23T09:01:12;3.85;;;2.97;;
40623;SDS011;26325;48.594;11.650;2024-03-23T09:03:38;3.13;;;2.75;;
40623;SDS011;26325;48.594;11.650;2024-03-23T09:06:11;2.67;;;2.47;;
40623;SDS011;26325;48.594;11.650;2024-03-23T09:08:42;2.50;;;2.30;;
40623;SDS011;26325;48.594;11.650;2024-03-23T09:11:12;2.47;;;2.28;;
40623;SDS011;26325;48.594;11.650;2024-03-23T09:13:39;2.90;;;2.70;;
40623;SDS011;26325;48.594;11.650;2024-03-23T09:16:05;2.80;;;2.60;;
40623;SDS011;26325;48.594;11.650;2024-03-23T09:18:32;2.50;;;2.30;;
40623;SDS011;26325;48.594;11.650;2024-03-23T09:21:03;2.03;;;1.92;;
40623;SDS011;26325;48.594;11.650;2024-03-23T09:23:30;3.13;;;2.28;;
40623;SDS011;26325;48.594;11.650;2024-03-23T09:25:56;2.30;;;2.10;;
40623;SDS011;26325;48.594;11.650;2024-03-23T09:28:22;1.90;;;1.80;;
40623;SDS011;26325;48.594;11.650;2024-03-23T09:30:48;2.17;;;1.90;;
40623;SDS011;26325;48.594;11.650;2024-03-23T09:33:14;2.00;;;1.90;;
40623;SDS011;26325;48.594;11.650;2024-03-23T09:35:40;2.05;;;1.95;;
40623;SDS011;26325;48.594;11.650;2024-03-23T09:38:08;2.00;;;1.80;;
40623;SDS011;26325;48.594;11.650;2024-03-23T09:40:39;2.95;;;2.03;;
40623;SDS011;26325;48.594;11.650;2024-03-23T09:43:09;2.40;;;1.80;;
40623;SDS011;26325;48.594;11.650;2024-03-23T09:45:40;2.10;;;1.27;;
40623;SDS011;26325;48.594;11.650;2024-03-23T09:48:12;3.13;;;1.50;;
40623;SDS011;26325;48.594;11.650;2024-03-23T09:50:42;2.08;;;1.33;;
40623;SDS011;26325;48.594;11.650;2024-03-23T09:53:13;1.70;;;1.10;;
40623;SDS011;26325;48.594;11.650;2024-03-23T09:55:44;1.25;;;1.15;;
40623;SDS011;26325;48.594;11.650;2024-03-23T09:58:17;1.10;;;1.00;;
40623;SDS011;26325;48.594;11.650;2024-03-23T10:00:46;0.90;;;0.90;;
40623;SDS011;26325;48.594;11.650;2024-03-23T10:03:14;0.85;;;0.85;;
40623;SDS011;26325;48.594;11.650;2024-03-23T10:05:40;0.90;;;0.90;;
40623;SDS011;26325;48.594;11.650;2024-03-23T10:10:43;1.88;;;1.20;;
40623;SDS011;26325;48.594;11.650;2024-03-23T10:13:10;1.10;;;1.10;;
40623;SDS011;26325;48.594;11.650;2024-03-23T10:15:38;1.30;;;1.20;;
40623;SDS011;26325;48.594;11.650;2024-03-23T10:18:20;2.08;;;0.90;;
40623;SDS011;26325;48.594;11.650;2024-03-23T10:21:15;1.92;;;1.20;;
40623;SDS011;26325;48.594;11.650;2024-03-23T10:23:44;1.10;;;1.10;;
40623;SDS011;26325;48.594;11.650;2024-03-23T10:26:22;1.48;;;1.30;;
40623;SDS011;26325;48.594;11.650;2024-03-23T10:28:56;1.55;;;1.40;;
40623;SDS011;26325;48.594;11.650;2024-03-23T10:31:36;1.02;;;1.02;;
40623;SDS011;26325;48.594;11.650;2024-03-23T10:34:06;1.10;;;1.00;;
40623;SDS011;26325;48.594;11.650;2024-03-23T10:36:43;0.90;;;0.90;;
40623;SDS011;26325;48.594;11.650;2024-03-23T10:39:09;1.00;;;0.90;;
40623;SDS011;26325;48.594;11.650;2024-03-23T10:41:43;1.98;;;1.30;;
40623;SDS011;26325;48.594;11.650;2024-03-23T10:44:13;1.33;;;1.23;;
40623;SDS011;26325;48.594;11.650;2024-03-23T10:46:41;0.90;;;0.90;;
40623;SDS011;26325;48.594;11.650;2024-03-23T10:49:09;1.00;;;1.00;;
40623;SDS011;26325;48.594;11.650;2024-03-23T10:51:39;0.75;;;0.70;;
40623;SDS011;26325;48.594;11.650;2024-03-23T10:54:05;2.78;;;1.15;;
40623;SDS011;26325;48.594;11.650;2024-03-23T10:56:32;0.90;;;0.90;;
40623;SDS011;26325;48.594;11.650;2024-03-23T10:59:01;1.00;;;1.00;;
40623;SDS011;26325;48.594;11.650;2024-03-23T11:01:33;1.20;;;1.10;;
40623;SDS011;26325;48.594;11.650;2024-03-23T11:03:59;1.00;;;1.00;;
40623;SDS011;26325;48.594;11.650;2024-03-23T11:06:39;1.20;;;1.10;;
40623;SDS011;26325;48.594;11.650;2024-03-23T11:15:05;1.10;;;1.10;;
40623;SDS011;26325;48.594;11.650;2024-03-23T11:17:36;1.20;;;1.10;;
40623;SDS011;26325;48.594;11.650;2024-03-23T11:20:05;1.40;;;1.27;;
40623;SDS011;26325;48.594;11.650;2024-03-23T11:25:25;1.13;;;1.00;;
40623;SDS011;26325;48.594;11.650;2024-03-23T11:27:53;1.10;;;1.10;;
40623;SDS011;26325;48.594;11.650;2024-03-23T11:30:40;1.35;;;1.25;;
40623;SDS011;26325;48.594;11.650;2024-03-23T11:33:09;1.77;;;1.50;;
40623;SDS011;26325;48.594;11.650;2024-03-23T11:35:37;1.20;;;1.10;;
40623;SDS011;26325;48.594;11.650;2024-03-23T11:40:31;1.60;;;1.50;;
40623;SDS011;26325;48.594;11.650;2024-03-23T11:43:03;1.50;;;1.40;;
40623;SDS011;26325;48.594;11.650;2024-03-23T11:45:29;1.70;;;1.33;;
40623;SDS011;26325;48.594;11.650;2024-03-23T11:48:10;2.35;;;1.50;;
40623;SDS011;26325;48.594;11.650;2024-03-23T11:53:29;1.42;;;1.33;;
40623;SDS011;26325;48.594;11.650;2024-03-23T11:56:03;1.58;;;1.48;;
40623;SDS011;26325;48.594;11.650;2024-03-23T11:58:29;1.60;;;1.50;;
40623;SDS011;26325;48.594;11.650;2024-03-23T12:01:02;2.10;;;1.50;;
40623;SDS011;26325;48.594;11.650;2024-03-23T12:03:29;1.30;;;1.20;;
40623;SDS011;26325;48.594;11.650;2024-03-23T12:06:00;2.13;;;1.60;;
40623;SDS011;26325;48.594;11.650;2024-03-23T12:08:33;1.40;;;1.30;;
40623;SDS011;26325;48.594;11.650;2024-03-23T12:11:16;2.50;;;1.75;;
40623;SDS011;26325;48.594;11.650;2024-03-23T12:13:45;1.73;;;1.60;;
40623;SDS011;26325;48.594;11.650;2024-03-23T12:16:17;1.90;;;1.60;;
40623;SDS011;26325;48.594;11.650;2024-03-23T12:18:52;1.98;;;1.75;;
40623;SDS011;26325;48.594;11.650;2024-03-23T12:21:28;3.13;;;1.73;;
40623;SDS011;26325;48.594;11.650;2024-03-23T12:23:54;2.42;;;2.17;;
40623;SDS011;26325;48.594;11.650;2024-03-23T12:28:52;4.10;;;2.50;;
40623;SDS011;26325;48.594;11.650;2024-03-23T12:31:20;2.20;;;1.80;;
40623;SDS011;26325;48.594;11.650;2024-03-23T12:33:45;2.97;;;2.10;;
40623;SDS011;26325;48.594;11.650;2024-03-23T12:36:11;3.03;;;2.00;;
40623;SDS011;26325;48.594;11.650;2024-03-23T12:38:36;2.97;;;2.13;;
40623;SDS011;26325;48.594;11.650;2024-03-23T12:41:02;3.08;;;2.15;;
40623;SDS011;26325;48.594;11.650;2024-03-23T12:43:30;3.25;;;2.00;;
40623;SDS011;26325;48.594;11.650;2024-03-23T12:45:56;3.38;;;2.55;;
40623;SDS011;26325;48.594;11.650;2024-03-23T12:48:24;2.58;;;2.33;;
40623;SDS011;26325;48.594;11.650;2024-03-23T12:50:54;2.97;;;2.00;;
40623;SDS011;26325;48.594;11.650;2024-03-23T12:53:20;2.20;;;1.92;;
40623;SDS011;26325;48.594;11.650;2024-03-23T12:55:45;2.35;;;2.03;;
40623;SDS011;26325;48.594;11.650;2024-03-23T12:58:11;2.20;;;2.00;;
40623;SDS011;26325;48.594;11.650;2024-03-23T13:00:36;2.55;;;2.00;;
40623;SDS011;26325;48.594;11.650;2024-03-23T13:03:04;2.30;;;2.10;;
40623;SDS011;26325;48.594;11.650;2024-03-23T13:05:30;2.92;;;2.38;;
40623;SDS011;26325;48.594;11.650;2024-03-23T13:07:55;2.78;;;2.10;;
40623;SDS011;26325;48.594;11.650;2024-03-23T13:10:23;10.98;;;5.38;;
40623;SDS011;26325;48.594;11.650;2024-03-23T13:12:48;4.18;;;2.90;;
40623;SDS011;26325;48.594;11.650;2024-03-23T13:15:14;3.05;;;2.38;;
40623;SDS011;26325;48.594;11.650;2024-03-23T13:17:43;2.90;;;2.13;;
40623;SDS011;26325;48.594;11.650;2024-03-23T13:20:08;3.58;;;3.00;;
40623;SDS011;26325;48.594;11.650;2024-03-23T13:22:39;3.80;;;2.90;;
40623;SDS011;26325;48.594;11.650;2024-03-23T13:25:06;4.05;;;2.53;;
40623;SDS011;26325;48.594;11.650;2024-03-23T13:27:32;3.38;;;2.80;;
40623;SDS011;26325;48.594;11.650;2024-03-23T13:29:57;4.05;;;2.42;;
40623;SDS011;26325;48.594;11.650;2024-03-23T13:32:23;5.05;;;2.88;;
40623;SDS011;26325;48.594;11.650;2024-03-23T13:34:48;7.93;;;4.35;;
40623;SDS011;26325;48.594;11.650;2024-03-23T13:37:16;10.90;;;5.03;;
40623;SDS011;26325;48.594;11.650;2024-03-23T13:39:44;8.10;;;4.53;;
40623;SDS011;26325;48.594;11.650;2024-03-23T13:42:12;7.07;;;3.30;;
40623;SDS011;26325;48.594;11.650;2024-03-23T13:44:38;4.32;;;3.20;;
40623;SDS011;26325;48.594;11.650;2024-03-23T13:47:04;3.72;;;2.88;;
40623;SDS011;26325;48.594;11.650;2024-03-23T13:49:30;3.97;;;2.70;;
40623;SDS011;26325;48.594;11.650;2024-03-23T13:51:58;4.25;;;2.95;;
40623;SDS011;26325;48.594;11.650;2024-03-23T13:54:24;4.25;;;3.22;;
40623;SDS011;26325;48.594;11.650;2024-03-23T13:56:50;4.05;;;3.50;;
40623;SDS011;26325;48.594;11.650;2024-03-23T13:59:19;4.55;;;3.42;;
40623;SDS011;26325;48.594;11.650;2024-03-23T14:01:44;3.70;;;3.00;;
40623;SDS011;26325;48.594;11.650;2024-03-23T14:04:13;4.30;;;2.85;;
40623;SDS011;26325;48.594;11.650;2024-03-23T14:06:39;4.03;;;2.30;;
40623;SDS011;26325;48.594;11.650;2024-03-23T14:09:05;3.97;;;2.80;;
40623;SDS011;26325;48.594;11.650;2024-03-23T14:11:35;3.33;;;2.80;;
40623;SDS011;26325;48.594;11.650;2024-03-23T14:14:02;3.85;;;2.40;;
40623;SDS011;26325;48.594;11.650;2024-03-23T14:16:29;4.00;;;2.72;;
40623;SDS011;26325;48.594;11.650;2024-03-23T14:18:55;2.90;;;2.30;;
40623;SDS011;26325;48.594;11.650;2024-03-23T14:21:21;2.72;;;2.42;;
40623;SDS011;26325;48.594;11.650;2024-03-23T14:23:47;5.00;;;2.38;;
40623;SDS011;26325;48.594;11.650;2024-03-23T14:26:15;3.05;;;2.72;;
40623;SDS011;26325;48.594;11.650;2024-03-23T14:28:40;3.63;;;2.40;;
40623;SDS011;26325;48.594;11.650;2024-03-23T14:31:06;3.38;;;2.33;;
40623;SDS011;26325;48.594;11.650;2024-03-23T14:33:36;2.75;;;2.33;;
40623;SDS011;26325;48.594;11.650;2024-03-23T14:36:03;3.60;;;2.65;;
40623;SDS011;26325;48.594;11.650;2024-03-23T14:38:31;2.58;;;2.10;;
40623;SDS011;26325;48.594;11.650;2024-03-23T14:41:00;2.40;;;2.20;;
40623;SDS011;26325;48.594;11.650;2024-03-23T14:43:28;2.50;;;2.30;;
40623;SDS011;26325;48.594;11.650;2024-03-23T14:46:14;3.25;;;2.10;;
40623;SDS011;26325;48.594;11.650;2024-03-23T14:48:41;3.20;;;2.78;;
40623;SDS011;26325;48.594;11.650;2024-03-23T14:51:14;3.55;;;2.00;;
40623;SDS011;26325;48.594;11.650;2024-03-23T14:53:40;3.47;;;2.45;;
40623;SDS011;26325;48.594;11.650;2024-03-23T14:56:10;2.97;;;2.65;;
40623;SDS011;26325;48.594;11.650;2024-03-23T14:58:38;2.90;;;2.40;;
40623;SDS011;26325;48.594;11.650;2024-03-23T15:01:05;4.90;;;2.95;;
40623;SDS011;26325;48.594;11.650;2024-03-23T15:03:40;3.03;;;2.53;;
40623;SDS011;26325;48.594;11.650;2024-03-23T15:06:08;3.28;;;2.80;;
40623;SDS011;26325;48.594;11.650;2024-03-23T15:08:37;3.05;;;2.00;;
40623;SDS011;26325;48.594;11.650;2024-03-23T15:11:05;4.22;;;2.78;;
40623;SDS011;26325;48.594;11.650;2024-03-23T15:13:35;3.63;;;2.03;;
40623;SDS011;26325;48.594;11.650;2024-03-23T15:16:02;2.88;;;2.10;;
40623;SDS011;26325;48.594;11.650;2024-03-23T15:18:32;3.22;;;2.38;;
40623;SDS011;26325;48.594;11.650;2024-03-23T15:20:59;2.58;;;2.10;;
40623;SDS011;26325;48.594;11.650;2024-03-23T15:23:33;3.88;;;1.90;;
40623;SDS011;26325;48.594;11.650;2024-03-23T15:25:59;3.35;;;1.98;;
40623;SDS011;26325;48.594;11.650;2024-03-23T15:28:26;2.55;;;1.90;;
40623;SDS011;26325;48.594;11.650;2024-03-23T15:31:03;3.58;;;1.83;;
40623;SDS011;26325;48.594;11.650;2024-03-23T15:33:29;2.92;;;1.88;;
40623;SDS011;26325;48.594;11.650;2024-03-23T15:35:58;2.55;;;1.73;;
40623;SDS011;26325;48.594;11.650;2024-03-23T15:38:24;2.85;;;1.80;;
40623;SDS011;26325;48.594;11.650;2024-03-23T15:40:52;2.50;;;1.90;;
40623;SDS011;26325;48.594;11.650;2024-03-23T15:43:18;2.88;;;1.80;;
40623;SDS011;26325;48.594;11.650;2024-03-23T15:45:44;2.88;;;1.95;;
40623;SDS011;26325;48.594;11.650;2024-03-23T15:48:18;2.65;;;1.83;;
40623;SDS011;26325;48.594;11.650;2024-03-23T15:50:53;3.35;;;2.00;;
40623;SDS011;26325;48.594;11.650;2024-03-23T15:53:23;2.97;;;1.95;;
40623;SDS011;26325;48.594;11.650;2024-03-23T15:56:16;2.97;;;1.58;;
40623;SDS011;26325;48.594;11.650;2024-03-23T15:58:42;3.58;;;1.90;;
40623;SDS011;26325;48.594;11.650;2024-03-23T16:01:08;3.10;;;1.63;;
40623;SDS011;26325;48.594;11.650;2024-03-23T16:03:36;3.95;;;1.70;;
40623;SDS011;26325;48.594;11.650;2024-03-23T16:06:04;4.00;;;1.58;;